Time;durP1;ratioP1;P1;durP2;ratioP2;P2;SDS_P1;SDS_P2;PMS_P1;PMS_P2;Temp;Humidity;BMP_temperature;BMP_pressure;BME280_temperature;BME280_humidity;BME280_pressure;Samples;Min_cycle;Max_cycle;Signal;HPM_P1;HPM_P2
2022/01/15 16:46:43;;;;;;;14.82;11.80;;;;;;;-144.19;100.00;78504.78;6187491;23;20472;-87
2022/01/15 16:49:10;;;;;;;15.43;12.13;;;;;;;-144.19;100.00;78508.72;6190646;23;20056;-89
2022/01/15 16:51:37;;;;;;;17.52;12.80;;;;;;;-144.19;100.00;78512.66;6192309;23;20029;-88
2022/01/15 16:54:04;;;;;;;16.60;12.40;;;;;;;-144.19;100.00;78492.97;6189913;23;20024;-88
2022/01/15 16:56:30;;;;;;;17.83;12.95;;;;;;;-144.19;100.00;78500.84;6191801;23;20489;-88
2022/01/15 16:58:57;;;;;;;15.23;11.97;;;;;;;-144.19;100.00;78514.63;6190831;23;20108;-88
2022/01/15 17:01:23;;;;;;;16.40;12.70;;;;;;;-144.19;100.00;78520.56;6194285;23;20027;-89
2022/01/15 17:03:50;;;;;;;16.77;12.95;;;;;;;-144.19;100.00;78520.56;6192514;23;20171;-87
2022/01/15 17:06:18;;;;;;;18.37;12.83;;;;;;;-144.19;100.00;78512.66;6191402;23;20099;-90
2022/01/15 17:08:44;;;;;;;17.73;13.77;;;;;;;-144.19;100.00;78514.63;6183846;23;20108;-87
2022/01/15 17:11:11;;;;;;;16.80;13.33;;;;;;;-144.19;100.00;78512.66;6185405;23;20032;-87
2022/01/15 17:13:37;;;;;;;17.00;13.70;;;;;;;-144.19;100.00;78508.72;6183838;23;20750;-88
2022/01/15 17:16:04;;;;;;;17.43;13.60;;;;;;;-144.19;100.00;78506.75;6183711;23;20017;-89
2022/01/15 17:18:30;;;;;;;15.98;13.30;;;;;;;-144.19;100.00;78512.66;6210164;23;20029;-87
2022/01/15 17:20:58;;;;;;;16.00;13.70;;;;;;;-144.19;100.00;78514.63;6186659;23;20100;-87
2022/01/15 17:23:28;;;;;;;18.30;14.32;;;;;;;-144.19;100.00;78524.50;6184776;23;20350;-86
2022/01/15 17:25:55;;;;;;;17.70;13.30;;;;;;;-144.19;100.00;78500.84;6187078;23;20017;-86
2022/01/15 17:28:21;;;;;;;16.98;13.68;;;;;;;-144.19;100.00;78518.56;6186241;23;20027;-88
2022/01/15 17:30:47;;;;;;;17.97;13.27;;;;;;;-144.19;100.00;78544.19;6184138;23;20470;-89
2022/01/15 17:33:14;;;;;;;19.05;14.25;;;;;;;-144.19;100.00;78548.13;6208440;23;20021;-89
2022/01/15 17:35:40;;;;;;;15.03;12.37;;;;;;;-144.19;100.00;78544.19;6184879;23;20017;-88
2022/01/15 17:38:07;;;;;;;18.27;14.40;;;;;;;-144.19;100.00;78544.19;6185083;23;20029;-87
2022/01/15 17:40:33;;;;;;;16.50;13.37;;;;;;;-144.19;100.00;78546.16;6183849;23;20031;-88
2022/01/15 17:43:04;;;;;;;18.75;13.27;;;;;;;-144.19;100.00;78556.00;6183850;23;20287;-87
2022/01/15 17:45:32;;;;;;;18.33;13.85;;;;;;;-144.19;100.00;78544.19;6184400;23;20378;-90
2022/01/15 17:47:58;;;;;;;16.92;14.02;;;;;;;-144.19;100.00;78536.31;6186139;23;20027;-89
2022/01/15 17:50:32;;;;;;;18.38;14.38;;;;;;;-144.19;100.00;78538.28;6160553;23;20517;-90
2022/01/15 17:52:59;;;;;;;18.73;14.55;;;;;;;-144.19;100.00;78528.44;6158230;23;20024;-88
2022/01/15 17:55:27;;;;;;;18.02;13.98;;;;;;;-144.19;100.00;78528.44;6158939;23;20024;-85
2022/01/15 17:57:54;;;;;;;19.52;14.05;;;;;;;-144.19;100.00;78524.50;6159658;23;20021;-87
2022/01/15 18:00:20;;;;;;;19.97;15.23;;;;;;;-144.19;100.00;78516.59;6158501;23;20017;-86
2022/01/15 18:02:47;;;;;;;18.77;14.85;;;;;;;-144.19;100.00;78512.66;6159548;23;20253;-88
2022/01/15 18:05:13;;;;;;;21.52;15.60;;;;;;;-144.19;100.00;78512.66;6159011;23;20021;-89
2022/01/15 18:07:43;;;;;;;20.83;16.50;;;;;;;-144.19;100.00;78516.59;6160212;23;20023;-88
2022/01/15 18:10:16;;;;;;;21.52;16.30;;;;;;;-144.19;100.00;78504.78;6159582;23;20029;-88
2022/01/15 18:12:48;;;;;;;22.65;17.67;;;;;;;-144.19;100.00;78504.78;6158756;23;20041;-87
2022/01/15 18:15:16;;;;;;;21.45;16.17;;;;;;;-144.19;100.00;78504.78;6159080;23;20491;-86
2022/01/15 18:17:43;;;;;;;21.90;17.15;;;;;;;-144.19;100.00;78510.69;6159569;23;20561;-87
2022/01/15 18:20:10;;;;;;;21.80;16.20;;;;;;;-144.19;100.00;78504.78;6158864;23;20017;-85
2022/01/15 18:22:36;;;;;;;21.90;16.98;;;;;;;-144.19;100.00;78500.84;6159080;23;20035;-89
2022/01/15 18:25:07;;;;;;;21.52;16.42;;;;;;;-144.19;100.00;78498.88;6185159;23;20021;-88
2022/01/15 18:27:33;;;;;;;30.33;21.08;;;;;;;-144.19;100.00;78496.91;6158799;23;20013;-88
2022/01/15 18:30:03;;;;;;;25.33;18.92;;;;;;;-144.19;100.00;78496.91;6159126;23;20357;-88
2022/01/15 18:32:43;;;;;;;25.42;18.42;;;;;;;-144.19;100.00;78496.91;6185295;23;20047;-89
2022/01/15 18:35:10;;;;;;;25.00;19.10;;;;;;;-144.19;100.00;78496.91;6158980;23;20130;-88
2022/01/15 18:37:36;;;;;;;23.80;19.13;;;;;;;-144.19;100.00;78491.00;6158703;23;20099;-89
2022/01/15 18:40:05;;;;;;;23.70;18.55;;;;;;;-144.19;100.00;78489.03;6159030;23;20017;-89
2022/01/15 18:42:32;;;;;;;23.88;18.55;;;;;;;-144.19;100.00;78500.84;6184993;23;20348;-89
2022/01/15 18:44:58;;;;;;;25.00;19.17;;;;;;;-144.19;100.00;78494.94;6159429;23;20021;-88
2022/01/15 18:47:25;;;;;;;26.00;19.17;;;;;;;-144.19;100.00;78504.78;6185934;23;20024;-89
2022/01/15 18:49:51;;;;;;;23.97;18.60;;;;;;;-144.19;100.00;78492.97;6187409;23;20255;-89
2022/01/15 18:52:18;;;;;;;22.77;18.33;;;;;;;-144.19;100.00;78508.72;6186099;23;20021;-89
2022/01/15 18:54:44;;;;;;;25.10;19.37;;;;;;;-144.19;100.00;78522.50;6161238;23;20021;-90
2022/01/15 18:57:11;;;;;;;25.40;19.27;;;;;;;-144.19;100.00;78526.47;6161593;23;20025;-88
2022/01/15 18:59:37;;;;;;;25.67;18.52;;;;;;;-144.19;100.00;78540.25;6160818;23;20027;-90
2022/01/15 19:02:05;;;;;;;23.67;18.23;;;;;;;-144.19;100.00;78540.25;6160492;23;20032;-90
2022/01/15 19:04:33;;;;;;;23.88;17.50;;;;;;;-144.19;100.00;78552.06;6186858;23;20075;-89
2022/01/15 19:07:04;;;;;;;26.58;19.70;;;;;;;-144.19;100.00;78559.94;6186853;23;20331;-91
2022/01/15 19:09:31;;;;;;;;;;;;;;;-144.19;100.00;78603.25;6187168;23;20692;-89
2022/01/15 19:11:58;;;;;;;29.83;19.98;;;;;;;-144.19;100.00;78646.59;6161222;23;19922;-87
2022/01/15 19:14:24;;;;;;;30.80;21.52;;;;;;;-144.19;100.00;78630.84;6161324;23;20043;-90
2022/01/15 19:16:52;;;;;;;30.03;21.13;;;;;;;-144.19;100.00;78611.13;6161259;23;20080;-90
2022/01/15 19:19:18;;;;;;;39.60;27.40;;;;;;;-144.19;100.00;78607.19;6160440;23;20303;-89
2022/01/15 19:21:45;;;;;;;34.40;24.75;;;;;;;-144.19;100.00;78573.72;6160723;23;20466;-89
2022/01/15 19:24:15;;;;;;;36.55;25.90;;;;;;;-144.19;100.00;78540.25;6160104;23;20021;-88
2022/01/15 19:26:42;;;;;;;36.42;26.23;;;;;;;-144.19;100.00;78524.50;6160484;23;20017;-88
2022/01/15 19:29:08;;;;;;;34.77;23.93;;;;;;;-144.19;100.00;78508.72;6160832;23;20438;-91
2022/01/15 19:31:35;;;;;;;34.03;22.80;;;;;;;-144.19;100.00;78473.28;6161311;23;20022;-87
2022/01/15 19:34:01;;;;;;;34.08;24.33;;;;;;;-144.19;100.00;78445.72;6160620;23;20021;-88
2022/01/15 19:36:27;;;;;;;34.87;23.43;;;;;;;-144.19;100.00;78463.44;6160400;23;20039;-89
2022/01/15 19:38:54;;;;;;;37.47;24.92;;;;;;;-144.19;100.00;78465.41;6160839;23;20048;-88
2022/01/15 19:41:20;;;;;;;32.70;22.13;;;;;;;-144.19;100.00;78504.78;6160696;23;20056;-89
2022/01/15 19:43:47;;;;;;;37.72;24.00;;;;;;;-144.19;100.00;78504.78;6186749;23;20244;-89
2022/01/15 19:46:14;;;;;;;33.70;22.75;;;;;;;-144.19;100.00;78512.66;6169404;23;20079;-88
2022/01/15 19:48:41;;;;;;;37.05;23.35;;;;;;;-144.19;100.00;78518.56;6210787;23;20357;-89
2022/01/15 19:51:07;;;;;;;36.00;24.50;;;;;;;-144.19;100.00;78508.72;6185938;23;20104;-90
2022/01/15 19:53:35;;;;;;;38.97;24.60;;;;;;;-144.19;100.00;78520.56;6185132;23;20032;-91
2022/01/15 19:56:03;;;;;;;38.78;24.55;;;;;;;-144.19;100.00;78514.63;6185145;23;20108;-88
2022/01/15 19:58:32;;;;;;;37.50;24.17;;;;;;;-144.19;100.00;78524.50;6185710;23;20021;-89
2022/01/15 20:00:58;;;;;;;38.28;24.42;;;;;;;-144.19;100.00;78510.69;6186400;23;20017;-89
2022/01/15 20:03:25;;;;;;;39.78;24.48;;;;;;;-144.19;100.00;78492.97;6184642;23;20096;-90
2022/01/15 20:05:51;;;;;;;37.73;24.33;;;;;;;-144.19;100.00;78483.13;6187242;23;20023;-89
2022/01/15 20:08:18;;;;;;;37.67;23.97;;;;;;;-144.19;100.00;78473.28;6187850;23;20245;-86
2022/01/15 20:10:44;;;;;;;38.40;23.50;;;;;;;-144.19;100.00;78504.78;6185695;23;20017;-88
2022/01/15 20:13:11;;;;;;;42.63;24.70;;;;;;;-144.19;100.00;78538.28;6185358;23;20240;-87
2022/01/15 20:15:37;;;;;;;45.63;25.70;;;;;;;-144.19;100.00;78540.25;6187733;23;20343;-88
2022/01/15 20:18:03;;;;;;;46.10;26.47;;;;;;;-144.19;100.00;78556.00;6185522;23;20027;-87
2022/01/15 20:20:30;;;;;;;43.65;23.70;;;;;;;-144.19;100.00;78552.06;6186018;23;20454;-87
2022/01/15 20:22:57;;;;;;;44.95;24.02;;;;;;;-144.19;100.00;78512.66;6184797;23;20025;-88
2022/01/15 20:25:25;;;;;;;41.83;22.95;;;;;;;-144.19;100.00;78540.25;6184902;23;20027;-88
2022/01/15 20:27:52;;;;;;;42.63;23.50;;;;;;;-144.19;100.00;78532.38;6185687;23;20017;-88
2022/01/15 20:30:20;;;;;;;43.40;23.70;;;;;;;-144.19;100.00;78532.38;6185263;23;20027;-86
2022/01/15 20:32:49;;;;;;;40.72;22.38;;;;;;;-144.19;100.00;78546.16;6184998;23;20040;-88
2022/01/15 20:35:17;;;;;;;40.78;25.10;;;;;;;-144.19;100.00;78544.19;6185264;23;20457;-89
2022/01/15 20:37:44;;;;;;;42.05;23.60;;;;;;;-144.19;100.00;78548.13;6185712;23;20047;-89
2022/01/15 20:40:11;;;;;;;45.45;23.08;;;;;;;-144.19;100.00;78522.50;6187552;23;20092;-88
2022/01/15 20:42:38;;;;;;;46.60;26.52;;;;;;;-144.19;100.00;78544.19;6188689;23;20021;-89
2022/01/15 20:45:07;;;;;;;51.05;26.83;;;;;;;-144.19;100.00;78567.81;6189860;23;20023;-89
2022/01/15 20:47:34;;;;;;;45.70;24.05;;;;;;;-144.19;100.00;78552.06;6188584;23;20088;-90
2022/01/15 20:50:00;;;;;;;47.80;26.10;;;;;;;-144.19;100.00;78546.16;6188183;23;20027;-88
2022/01/15 20:52:26;;;;;;;49.17;26.20;;;;;;;-144.19;100.00;78540.25;6188083;23;20021;-88
2022/01/15 20:54:53;;;;;;;49.07;24.80;;;;;;;-144.19;100.00;78528.44;6187704;23;20342;-90
2022/01/15 20:57:19;;;;;;;49.90;27.97;;;;;;;-144.19;100.00;78516.59;6187144;23;20023;-87
2022/01/15 20:59:46;;;;;;;50.17;28.08;;;;;;;-144.19;100.00;78532.38;6188238;23;20103;-89
2022/01/15 21:02:12;;;;;;;51.28;29.60;;;;;;;-144.19;100.00;78508.72;6187987;23;20025;-89
2022/01/15 21:04:38;;;;;;;58.25;29.88;;;;;;;-144.19;100.00;78524.50;6187559;23;20025;-89
2022/01/15 21:07:05;;;;;;;53.87;30.00;;;;;;;-144.19;100.00;78500.84;6186866;23;20017;-90
2022/01/15 21:09:31;;;;;;;49.33;29.10;;;;;;;-144.19;100.00;78520.56;6187074;23;20021;-92
2022/01/15 21:11:58;;;;;;;51.53;29.60;;;;;;;-144.19;100.00;78494.94;6187007;23;20024;-89
2022/01/15 21:14:24;;;;;;;48.77;28.80;;;;;;;-144.19;100.00;78500.84;6187362;23;20017;-87
2022/01/15 21:16:54;;;;;;;53.05;28.33;;;;;;;-144.19;100.00;78492.97;6187769;23;20013;-89
2022/01/15 21:19:20;;;;;;;44.87;25.70;;;;;;;-144.19;100.00;78504.78;6187016;23;20027;-87
2022/01/15 21:21:47;;;;;;;43.60;24.48;;;;;;;-144.19;100.00;78498.88;6187928;23;20396;-88
2022/01/15 21:24:13;;;;;;;36.77;21.87;;;;;;;-144.19;100.00;78508.72;6186675;23;20331;-89
2022/01/15 21:27:00;;;;;;;36.22;19.98;;;;;;;-144.19;100.00;78516.59;6187291;23;20241;-90
2022/01/15 21:29:26;;;;;;;32.40;19.88;;;;;;;-144.19;100.00;78516.59;6186951;23;20062;-87
2022/01/15 21:31:53;;;;;;;36.28;19.23;;;;;;;-144.19;100.00;78532.38;6187146;23;20023;-89
2022/01/15 21:34:20;;;;;;;;;;;;;;;-144.19;100.00;78532.38;6187464;23;20025;-87
2022/01/15 21:36:46;;;;;;;31.83;18.42;;;;;;;-144.19;100.00;78524.50;6187907;23;19922;-88
2022/01/15 21:39:14;;;;;;;35.55;20.65;;;;;;;-144.19;100.00;78524.50;6186378;23;20017;-88
2022/01/15 21:41:40;;;;;;;30.95;18.15;;;;;;;-144.19;100.00;78540.25;6187646;23;20021;-89
2022/01/15 21:44:07;;;;;;;33.03;20.17;;;;;;;-144.19;100.00;78552.06;6187414;23;20095;-86
2022/01/15 21:46:42;;;;;;;36.17;19.48;;;;;;;-144.19;100.00;78552.06;6187425;23;20100;-87
2022/01/15 21:49:09;;;;;;;32.15;18.60;;;;;;;-144.19;100.00;78559.94;6186932;23;20021;-87
2022/01/15 21:51:36;;;;;;;36.85;19.63;;;;;;;-144.19;100.00;78540.25;6187117;23;20025;-89
2022/01/15 21:54:03;;;;;;;32.17;18.65;;;;;;;-144.19;100.00;78540.25;6187963;23;20023;-88
2022/01/15 21:56:29;;;;;;;33.17;19.17;;;;;;;-144.19;100.00;78536.31;6186353;23;20025;-88
2022/01/15 21:58:56;;;;;;;37.15;19.33;;;;;;;-144.19;100.00;78538.28;6186649;23;20024;-89
2022/01/15 22:01:23;;;;;;;34.47;19.55;;;;;;;-144.19;100.00;78510.69;6187487;23;20021;-89
2022/01/15 22:03:52;;;;;;;37.95;21.08;;;;;;;-144.19;100.00;78532.38;6189185;23;20021;-86
2022/01/15 22:06:21;;;;;;;34.22;18.88;;;;;;;-144.19;100.00;78559.94;6186859;23;20021;-89
2022/01/15 22:08:48;;;;;;;33.65;19.30;;;;;;;-144.19;100.00;78552.06;6187631;23;20032;-91
2022/01/15 22:11:15;;;;;;;36.50;19.93;;;;;;;-144.19;100.00;78548.13;6187531;23;20021;-90
2022/01/15 22:13:41;;;;;;;38.60;21.15;;;;;;;-144.19;100.00;78579.63;6187560;23;20319;-89
2022/01/15 22:16:09;;;;;;;36.30;20.25;;;;;;;-144.19;100.00;78589.47;6185937;23;20041;-89
2022/01/15 22:18:36;;;;;;;36.30;21.05;;;;;;;-144.19;100.00;78595.38;6186173;23;20013;-89
2022/01/15 22:21:02;;;;;;;37.73;21.07;;;;;;;-144.19;100.00;78563.88;6187007;23;20021;-89
2022/01/15 22:23:45;;;;;;;36.08;20.60;;;;;;;-144.19;100.00;78563.88;6188684;23;20096;-87
2022/01/15 22:26:30;;;;;;;35.85;21.20;;;;;;;-144.19;100.00;78557.97;6187323;23;20027;-89
2022/01/15 22:28:58;;;;;;;33.50;20.20;;;;;;;-144.19;100.00;78573.72;6187116;23;20027;-86
2022/01/15 22:31:25;;;;;;;32.33;20.05;;;;;;;-144.19;100.00;78567.81;6184976;23;20477;-89
2022/01/15 22:33:52;;;;;;;31.27;19.33;;;;;;;-144.19;100.00;78573.72;6185318;23;20416;-88
2022/01/15 22:36:18;;;;;;;30.67;18.90;;;;;;;-144.19;100.00;78565.84;6185255;23;20100;-87
2022/01/15 22:38:45;;;;;;;31.75;19.17;;;;;;;-144.19;100.00;78575.69;6184993;23;20039;-89
2022/01/15 22:41:11;;;;;;;37.17;19.98;;;;;;;-144.19;100.00;78561.91;6185572;23;20053;-89
2022/01/15 22:43:38;;;;;;;31.83;19.58;;;;;;;-144.19;100.00;78569.78;6185498;23;20116;-88
2022/01/15 22:46:04;;;;;;;34.35;20.45;;;;;;;-144.19;100.00;78548.13;6183239;23;20080;-90
2022/01/15 22:48:31;;;;;;;39.58;22.55;;;;;;;-144.19;100.00;78571.75;6181482;23;20126;-91
2022/01/15 22:50:58;;;;;;;37.03;22.80;;;;;;;-144.19;100.00;78567.81;6180663;23;20027;-90
2022/01/15 22:53:25;;;;;;;38.45;23.23;;;;;;;-144.19;100.00;78540.25;6180776;23;20100;-91
2022/01/15 22:55:53;;;;;;;39.60;21.50;;;;;;;-144.19;100.00;78544.19;6181000;23;20027;-91
2022/01/15 22:58:21;;;;;;;43.80;24.02;;;;;;;-144.19;100.00;78556.00;6180840;23;20096;-91
2022/01/15 23:00:49;;;;;;;;;;;;;;;-144.19;100.00;78557.97;6182267;23;20021;-91
2022/01/15 23:03:16;;;;;;;43.38;24.30;;;;;;;-144.19;100.00;78548.13;6180546;23;19920;-91
2022/01/15 23:05:44;;;;;;;40.67;23.85;;;;;;;-144.19;100.00;78544.19;6180929;23;20504;-91
2022/01/15 23:08:12;;;;;;;41.67;24.50;;;;;;;-144.19;100.00;78536.31;6181211;23;20029;-91
2022/01/15 23:11:04;;;;;;;39.88;23.73;;;;;;;-144.19;100.00;78530.41;6182694;23;20027;-91
2022/01/15 23:13:43;;;;;;;44.30;25.80;;;;;;;-144.19;100.00;78524.50;6182584;23;20025;-91
2022/01/15 23:16:21;;;;;;;43.22;25.50;;;;;;;-144.19;100.00;78520.56;6180948;23;20477;-91
2022/01/15 23:18:48;;;;;;;42.72;26.05;;;;;;;-144.19;100.00;78540.25;6182330;23;20024;-91
2022/01/15 23:21:15;;;;;;;44.55;25.50;;;;;;;-144.19;100.00;78544.19;6181424;23;20369;-90
2022/01/15 23:23:41;;;;;;;43.17;25.98;;;;;;;-144.19;100.00;78528.44;6180673;23;20021;-91
2022/01/15 23:26:08;;;;;;;43.13;24.73;;;;;;;-144.19;100.00;78544.19;6182383;23;20469;-91
2022/01/15 23:28:34;;;;;;;39.53;24.30;;;;;;;-144.19;100.00;78554.03;6182785;23;20249;-91
2022/01/15 23:31:00;;;;;;;42.90;26.93;;;;;;;-144.19;100.00;78548.13;6180537;23;20760;-91
2022/01/15 23:33:28;;;;;;;45.65;26.08;;;;;;;-144.19;100.00;78544.19;6181127;23;20075;-91
2022/01/15 23:35:54;;;;;;;42.67;26.70;;;;;;;-144.19;100.00;78542.22;6181066;23;20032;-91
2022/01/15 23:38:21;;;;;;;40.13;24.15;;;;;;;-144.19;100.00;78536.31;6180749;23;20024;-91
2022/01/15 23:40:48;;;;;;;41.92;24.92;;;;;;;-144.19;100.00;78514.63;6180489;23;20338;-91
2022/01/15 23:43:15;;;;;;;47.50;25.30;;;;;;;-144.19;100.00;78544.19;6180625;23;20025;-91
2022/01/15 23:45:54;;;;;;;46.80;26.05;;;;;;;-144.19;100.00;78526.47;6182615;23;20346;-91
2022/01/15 23:48:25;;;;;;;33.22;21.45;;;;;;;-144.19;100.00;78540.25;6180930;23;20017;-91
2022/01/15 23:50:52;;;;;;;36.15;21.13;;;;;;;-144.19;100.00;78559.94;6182556;23;20365;-91
2022/01/15 23:53:18;;;;;;;;;;;;;;;-144.19;100.00;78583.56;6181407;23;20446;-91
2022/01/15 23:55:45;;;;;;;25.83;17.95;;;;;;;-144.19;100.00;78583.56;6180620;23;19916;-91
2022/01/15 23:58:12;;;;;;;;;;;;;;;-144.19;100.00;78571.75;6181456;23;20021;-91
